Assumption, Nebraska
Current Conditions -  °F | °C
As of 7:53 AM on Saturday 25 Oct 2014 (Local Time) from KHSI Reporting Station
Clear Clear  
Wind Chill: 44°   Ceiling: Unl
Heat Index: 44°   Visibility: 10mi
Dew Point: 39°   Wind: 3mph
Humidity: 82%   Direction: 360°N
Pressure: 30.09"   Gusts: NA
Location:  40.5679°N, 98.5535°W
Report Text: KHSI 251253Z AUTO 36003KT 10SM CLR 07/04 A3009 RMK AO2 SLP191 T00670039 $
Loading
Personal Weather Stations






























Interactive Weather Map
Tropical Storm Tracking
New forecast layout! Learn more

10-Day Weather Forecast

Advertisements
Track Severe Weather on mobile